createdAt,value
2019-04-05T00:00:29.715Z,6.78
2019-04-05T00:03:00.239Z,7.40
2019-04-05T00:05:30.673Z,7.15
2019-04-05T00:08:01.326Z,7.55
2019-04-05T00:10:31.576Z,7.50
2019-04-05T00:13:21.022Z,7.42
2019-04-05T00:15:51.485Z,7.25
2019-04-05T00:18:22.955Z,7.53
2019-04-05T00:20:53.462Z,7.15
2019-04-05T00:23:24.967Z,6.87
2019-04-05T00:25:56.670Z,6.62
2019-04-05T00:28:27.179Z,7.80
2019-04-05T00:30:57.710Z,6.92
2019-04-05T00:33:28.134Z,7.40
2019-04-05T00:35:58.530Z,7.17
2019-04-05T00:38:29.092Z,7.12
2019-04-05T00:40:59.443Z,7.50
2019-04-05T00:43:30.017Z,7.30
2019-04-05T00:46:00.467Z,7.30
2019-04-05T00:48:30.984Z,7.28
2019-04-05T00:51:01.355Z,6.83
2019-04-05T00:53:31.862Z,7.05
2019-04-05T00:56:02.187Z,7.55
2019-04-05T00:58:32.689Z,7.92
2019-04-05T01:01:03.669Z,7.15
2019-04-05T01:03:35.137Z,7.37
2019-04-05T01:06:05.608Z,7.55
2019-04-05T01:08:36.013Z,7.10
2019-04-05T01:11:06.428Z,6.75
2019-04-05T01:13:37.092Z,7.53
2019-04-05T01:16:07.543Z,6.92
2019-04-05T01:18:37.962Z,7.05
2019-04-05T01:21:08.222Z,6.78
2019-04-05T01:23:38.577Z,7.22
2019-04-05T01:26:09.054Z,7.55
2019-04-05T01:28:39.415Z,7.17
2019-04-05T01:31:09.990Z,6.85
2019-04-05T01:33:40.435Z,7.10
2019-04-05T01:36:11.035Z,7.67
2019-04-05T01:38:42.310Z,7.50
2019-04-05T01:41:28.067Z,7.10
2019-04-05T01:44:00.679Z,6.45
2019-04-05T01:46:50.071Z,7.85
2019-04-05T01:49:19.622Z,7.17
2019-04-05T01:51:48.999Z,6.90
2019-04-05T01:54:29.016Z,7.20
2019-04-05T01:57:01.509Z,7.28
2019-04-05T01:59:31.048Z,6.62
2019-04-05T02:02:02.206Z,6.50
2019-04-05T02:07:04.490Z,6.70
2019-04-05T02:09:36.257Z,6.70
2019-04-05T02:12:06.501Z,7.12
2019-04-05T02:14:37.007Z,6.87
2019-04-05T02:17:07.181Z,6.53
2019-04-05T02:22:27.043Z,7.28
2019-04-05T02:24:57.503Z,6.67
2019-04-05T02:30:16.941Z,7.10
2019-04-05T02:33:06.518Z,6.78
2019-04-05T02:35:39.115Z,7.30
2019-04-05T02:38:08.915Z,6.90
2019-04-05T02:40:39.727Z,6.60
2019-04-05T02:43:10.187Z,7.47
2019-04-05T02:45:40.737Z,7.00
2019-04-05T02:48:11.254Z,6.65
2019-04-05T02:50:44.194Z,7.12
2019-04-05T02:53:14.541Z,6.90
2019-04-05T02:55:44.892Z,6.80
2019-04-05T02:58:15.452Z,6.70
2019-04-05T03:01:04.978Z,6.25
2019-04-05T03:03:35.603Z,6.80
2019-04-05T03:06:06.312Z,7.05
2019-04-05T03:08:36.795Z,6.45
2019-04-05T03:11:09.717Z,6.62
2019-04-05T03:13:51.701Z,6.72
2019-04-05T03:16:40.326Z,7.08
2019-04-05T03:19:04.868Z,7.28
2019-04-05T03:21:35.520Z,7.05
2019-04-05T03:24:06.012Z,6.83
2019-04-05T03:26:39.628Z,6.42
2019-04-05T03:29:10.266Z,6.83
2019-04-05T03:31:41.722Z,7.00
2019-04-05T03:34:12.205Z,6.58
2019-04-05T03:36:43.701Z,6.72
2019-04-05T03:39:14.174Z,7.08
2019-04-05T03:41:44.746Z,7.58
2019-04-05T03:44:15.168Z,6.85
2019-04-05T03:46:56.117Z,6.22
2019-04-05T03:49:17.599Z,6.85
2019-04-05T03:51:48.099Z,7.12
2019-04-05T03:54:18.565Z,6.62
2019-04-05T03:56:49.028Z,6.72
2019-04-05T03:59:19.479Z,6.53
2019-04-05T04:01:49.931Z,6.67
2019-04-05T04:04:20.437Z,7.03
2019-04-05T04:06:50.835Z,6.65
2019-04-05T04:09:21.224Z,7.50
2019-04-05T04:11:51.742Z,6.50
2019-04-05T04:14:22.959Z,6.47
2019-04-05T04:16:53.544Z,6.65
2019-04-05T04:19:36.044Z,6.45
2019-04-05T04:22:17.659Z,6.85
2019-04-05T04:24:49.016Z,7.37
2019-04-05T04:27:19.747Z,6.78
2019-04-05T04:29:50.230Z,6.67
2019-04-05T04:32:20.702Z,6.87
2019-04-05T04:34:51.397Z,6.90
2019-04-05T04:37:21.701Z,6.78
2019-04-05T04:39:52.356Z,6.83
2019-04-05T04:42:22.848Z,7.03
2019-04-05T04:44:53.687Z,6.65
2019-04-05T04:47:26.881Z,6.55
2019-04-05T04:49:57.097Z,6.60
2019-04-05T04:52:31.232Z,6.55
2019-04-05T04:55:00.472Z,7.83
2019-04-05T04:57:30.914Z,7.20
2019-04-05T05:00:01.358Z,7.15
2019-04-05T05:02:32.004Z,6.55
2019-04-05T05:05:21.433Z,7.22
2019-04-05T05:07:51.998Z,7.15
2019-04-05T05:10:22.327Z,7.28
2019-04-05T05:12:52.748Z,6.92
2019-04-05T05:15:23.115Z,6.83
2019-04-05T05:17:58.743Z,6.95
2019-04-05T05:20:25.622Z,7.10
2019-04-05T05:22:56.104Z,6.45
2019-04-05T05:25:26.618Z,7.15
2019-04-05T05:27:57.062Z,6.70
2019-04-05T05:30:27.897Z,6.78
2019-04-05T05:32:58.475Z,6.75
2019-04-05T05:35:29.373Z,7.08
2019-04-05T05:38:00.238Z,6.60
2019-04-05T05:40:35.250Z,6.80
2019-04-05T05:43:02.803Z,6.85
2019-04-05T05:45:33.746Z,6.97
2019-04-05T05:48:04.272Z,6.80
2019-04-05T05:50:36.602Z,7.10
2019-04-05T05:53:09.099Z,7.05
2019-04-05T05:55:39.545Z,7.05
2019-04-05T05:58:10.109Z,6.45
2019-04-05T06:00:40.566Z,6.58
2019-04-05T06:03:12.046Z,6.87
2019-04-05T06:05:42.362Z,7.00
2019-04-05T06:08:16.539Z,6.37
2019-04-05T06:10:48.413Z,6.78
2019-04-05T06:13:26.907Z,6.22
2019-04-05T06:16:15.337Z,6.83
2019-04-05T06:18:48.648Z,6.70
2019-04-05T06:21:21.266Z,7.03
2019-04-05T06:23:56.699Z,7.53
2019-04-05T06:26:32.647Z,8.43
2019-04-05T06:29:04.510Z,7.72
2019-04-05T06:34:45.932Z,8.43
2019-04-05T06:37:17.926Z,8.25
2019-04-05T06:40:03.046Z,8.10
2019-04-05T06:42:33.624Z,9.30
2019-04-05T06:45:10.271Z,8.23
2019-04-05T06:47:44.070Z,8.53
2019-04-05T06:50:16.460Z,7.70
2019-04-05T06:52:47.342Z,8.90
2019-04-05T06:55:18.091Z,8.03
2019-04-05T06:57:50.251Z,9.53
2019-04-05T07:00:31.251Z,8.70
2019-04-05T07:03:02.581Z,8.18
2019-04-05T07:05:34.899Z,7.92
2019-04-05T07:08:05.732Z,8.23
2019-04-05T07:10:38.011Z,8.30
2019-04-05T07:13:12.508Z,7.95
2019-04-05T07:15:44.802Z,8.45
2019-04-05T07:18:15.317Z,8.15
2019-04-05T07:20:50.087Z,7.72
2019-04-05T07:23:24.442Z,8.90
2019-04-05T07:25:57.023Z,9.48
2019-04-05T07:28:30.343Z,8.88
2019-04-05T07:31:02.542Z,9.15
2019-04-05T07:33:33.243Z,8.75
2019-04-05T07:36:05.432Z,9.00
2019-04-05T07:38:39.997Z,9.60
2019-04-05T07:41:10.533Z,8.30
2019-04-05T07:43:41.533Z,7.37
2019-04-05T07:46:13.101Z,9.18
2019-04-05T07:48:45.563Z,8.53
2019-04-05T07:51:22.611Z,9.30
2019-04-05T07:53:53.352Z,8.68
2019-04-05T07:56:24.012Z,10.03
2019-04-05T07:58:54.627Z,9.25
2019-04-05T08:01:25.116Z,8.23
2019-04-05T08:03:57.935Z,8.33
2019-04-05T08:06:27.616Z,9.75
2019-04-05T08:09:10.083Z,8.00
2019-04-05T08:11:43.569Z,9.28
2019-04-05T08:16:51.878Z,9.40
2019-04-05T08:19:38.219Z,8.68
2019-04-05T08:22:25.887Z,8.60
2019-04-05T08:27:55.914Z,10.10
2019-04-05T08:35:49.150Z,7.90
2019-04-05T08:38:45.920Z,8.90
2019-04-05T08:41:26.907Z,8.95
2019-04-05T08:44:04.746Z,9.78
2019-04-05T08:47:08.569Z,10.58
2019-04-05T08:52:39.330Z,9.90
2019-04-05T08:55:45.122Z,12.93
2019-04-05T08:58:32.876Z,12.40
2019-04-05T09:00:53.996Z,12.53
2019-04-05T09:03:24.142Z,12.13
2019-04-05T09:06:20.270Z,12.28
2019-04-05T09:11:27.718Z,12.65
2019-04-05T09:14:02.939Z,12.93
2019-04-05T09:16:34.111Z,12.95
2019-04-05T09:19:03.523Z,12.18
2019-04-05T09:21:56.617Z,11.85
2019-04-05T09:24:34.943Z,11.40
2019-04-05T09:27:05.307Z,12.13
2019-04-05T09:32:12.815Z,10.80
2019-04-05T09:34:43.448Z,12.13
2019-04-05T09:37:14.004Z,11.33
2019-04-05T09:39:44.385Z,10.00
2019-04-05T09:42:19.248Z,10.75
2019-04-05T09:44:49.893Z,10.05
2019-04-05T09:47:20.539Z,10.40
2019-04-05T09:49:51.014Z,10.40
2019-04-05T09:52:24.705Z,9.90
2019-04-05T09:54:56.297Z,9.40
2019-04-05T10:00:22.370Z,9.73
2019-04-05T10:02:55.381Z,10.82
2019-04-05T10:08:16.309Z,10.13
2019-04-05T10:10:47.735Z,11.57
2019-04-05T10:13:18.359Z,12.13
2019-04-05T10:15:49.231Z,11.63
2019-04-05T10:18:19.899Z,11.60
2019-04-05T10:20:50.305Z,11.28
2019-04-05T10:23:20.932Z,11.10
2019-04-05T10:25:51.293Z,11.05
2019-04-05T10:28:22.267Z,10.78
2019-04-05T10:30:52.926Z,10.75
2019-04-05T10:33:23.428Z,11.63
2019-04-05T10:35:53.957Z,10.78
2019-04-05T10:38:24.334Z,11.10
2019-04-05T10:40:54.816Z,12.50
2019-04-05T10:43:25.424Z,10.98
2019-04-05T10:45:56.080Z,11.57
2019-04-05T10:48:28.396Z,11.35
2019-04-05T10:51:01.935Z,11.60
2019-04-05T10:53:34.175Z,11.93
2019-04-05T10:56:04.576Z,12.75
2019-04-05T10:58:35.033Z,11.57
2019-04-05T11:01:06.050Z,11.50
2019-04-05T11:03:38.672Z,12.20
2019-04-05T11:07:41.474Z,11.00
2019-04-05T11:10:17.926Z,11.57
2019-04-05T11:12:50.085Z,11.80
2019-04-05T11:15:20.914Z,11.60
2019-04-05T11:17:58.178Z,12.55
2019-04-05T11:20:33.370Z,12.00
2019-04-05T11:25:47.364Z,11.93
2019-04-05T11:28:30.626Z,11.03
2019-04-05T11:31:20.510Z,11.73
2019-04-05T11:33:50.970Z,12.45
2019-04-05T11:36:21.546Z,12.07
2019-04-05T11:38:53.307Z,12.05
2019-04-05T11:41:24.245Z,11.50
2019-04-05T11:43:58.517Z,10.75
2019-04-05T11:46:29.632Z,10.98
2019-04-05T11:49:03.649Z,11.83
2019-04-05T11:51:35.423Z,10.82
2019-04-05T11:54:14.987Z,10.60
2019-04-05T11:56:47.665Z,11.03
2019-04-05T11:59:18.358Z,10.95
2019-04-05T12:02:09.748Z,11.05
2019-04-05T12:04:42.683Z,10.75
2019-04-05T12:07:17.154Z,10.93
2019-04-05T12:09:49.152Z,10.58
2019-04-05T12:12:25.826Z,11.03
2019-04-05T12:14:54.479Z,11.73
2019-04-05T12:17:29.566Z,10.70
2019-04-05T12:20:00.568Z,11.03
2019-04-05T12:25:43.329Z,11.10
2019-04-05T12:30:56.281Z,11.48
2019-04-05T12:33:28.885Z,11.00
2019-04-05T12:41:05.975Z,11.18
2019-04-05T12:43:36.423Z,10.90
2019-04-05T12:46:08.036Z,11.10
2019-04-05T12:54:01.163Z,10.10
2019-04-05T13:05:04.895Z,10.58
2019-04-05T13:07:57.592Z,11.43
2019-04-05T13:10:35.116Z,10.93
2019-04-05T13:13:05.830Z,10.78
2019-04-05T13:15:36.505Z,11.28
2019-04-05T13:18:09.111Z,9.45
2019-04-05T13:20:46.252Z,10.85
2019-04-05T13:23:16.854Z,10.45
2019-04-05T13:25:53.187Z,10.18
2019-04-05T13:28:25.268Z,9.58
2019-04-05T13:30:59.421Z,10.30
2019-04-05T13:33:35.744Z,10.10
2019-04-05T13:36:08.442Z,10.35
2019-04-05T13:38:54.314Z,10.20
2019-04-05T13:41:19.457Z,9.60
2019-04-05T13:43:55.040Z,10.40
2019-04-05T13:46:30.639Z,10.18
2019-04-05T13:49:13.094Z,10.15
2019-04-05T13:51:43.517Z,10.55
2019-04-05T13:54:16.196Z,9.50
2019-04-05T13:56:46.360Z,9.75
2019-04-05T13:59:17.680Z,9.65
2019-04-05T14:01:50.926Z,10.08
2019-04-05T14:04:29.590Z,9.85
2019-04-05T14:06:57.393Z,10.00
2019-04-05T14:09:40.611Z,9.53
2019-04-05T14:12:09.212Z,9.03
2019-04-05T14:14:39.494Z,9.55
2019-04-05T14:17:11.474Z,9.48
2019-04-05T14:19:42.816Z,9.53
2019-04-05T14:22:13.239Z,9.55
2019-04-05T14:24:43.667Z,8.68
2019-04-05T14:27:16.136Z,9.03
2019-04-05T14:29:48.194Z,9.90
2019-04-05T14:32:21.570Z,9.75
2019-04-05T14:34:54.019Z,9.13
2019-04-05T14:37:24.956Z,9.35
2019-04-05T14:39:55.351Z,9.83
2019-04-05T14:42:25.815Z,9.78
2019-04-05T14:44:56.246Z,10.00
2019-04-05T14:47:28.277Z,9.73
2019-04-05T14:50:00.988Z,9.73
2019-04-05T14:52:32.595Z,10.00
2019-04-05T14:55:04.018Z,9.75
2019-04-05T14:57:36.577Z,9.38
2019-04-05T15:00:07.737Z,10.13
2019-04-05T15:02:38.007Z,9.63
2019-04-05T15:05:08.279Z,9.83
2019-04-05T15:07:38.514Z,9.35
2019-04-05T15:10:09.102Z,10.15
2019-04-05T15:12:39.349Z,8.93
2019-04-05T15:15:09.920Z,9.58
2019-04-05T15:17:47.998Z,9.73
2019-04-05T15:20:12.397Z,9.28
2019-04-05T15:22:42.829Z,8.95
2019-04-05T15:25:16.672Z,9.58
2019-04-05T15:27:45.215Z,9.05
2019-04-05T15:30:15.657Z,9.30
2019-04-05T15:32:45.907Z,9.30
2019-04-05T15:35:16.113Z,9.58
2019-04-05T15:37:48.509Z,10.30
2019-04-05T15:40:20.341Z,9.48
2019-04-05T15:42:50.691Z,10.10
2019-04-05T15:45:21.048Z,9.48
2019-04-05T15:47:52.730Z,10.28
2019-04-05T15:50:23.382Z,8.95
2019-04-05T15:52:53.745Z,9.13
2019-04-05T15:55:24.125Z,9.73
2019-04-05T15:58:06.174Z,9.48
2019-04-05T16:00:43.687Z,9.28
2019-04-05T16:03:14.163Z,9.53
2019-04-05T16:05:44.549Z,9.93
2019-04-05T16:08:16.101Z,10.48
2019-04-05T16:10:46.462Z,10.48
2019-04-05T16:13:17.096Z,9.28
2019-04-05T16:16:06.673Z,9.20
2019-04-05T16:18:38.093Z,9.10
2019-04-05T16:21:08.424Z,9.20
2019-04-05T16:23:38.850Z,9.63
2019-04-05T16:26:09.189Z,9.68
2019-04-05T16:28:40.981Z,9.50
2019-04-05T16:31:11.669Z,10.00
2019-04-05T16:33:42.097Z,10.10
2019-04-05T16:36:12.739Z,9.88
2019-04-05T16:38:43.035Z,10.40
2019-04-05T16:41:16.399Z,9.70
2019-04-05T16:43:46.818Z,11.12
2019-04-05T16:46:18.737Z,10.08
2019-04-05T16:48:49.044Z,10.32
2019-04-05T16:51:19.367Z,9.45
2019-04-05T16:54:02.941Z,10.53
2019-04-05T16:56:33.429Z,10.23
2019-04-05T16:59:04.946Z,10.55
2019-04-05T17:01:35.442Z,10.90
2019-04-05T17:04:05.974Z,9.65
2019-04-05T17:06:36.504Z,9.73
2019-04-05T17:09:08.574Z,10.05
2019-04-05T17:11:39.126Z,10.30
2019-04-05T17:14:10.547Z,10.43
2019-04-05T17:16:40.939Z,9.65
2019-04-05T17:19:11.510Z,9.93
2019-04-05T17:21:41.934Z,10.10
2019-04-05T17:24:12.360Z,10.10
2019-04-05T17:26:42.797Z,9.83
2019-04-05T17:29:13.215Z,9.50
2019-04-05T17:31:43.671Z,10.72
2019-04-05T17:34:14.279Z,10.85
2019-04-05T17:36:44.714Z,10.45
2019-04-05T17:39:15.131Z,9.98
2019-04-05T17:41:45.460Z,11.15
2019-04-05T17:44:28.918Z,11.08
2019-04-05T17:46:59.384Z,10.18
2019-04-05T17:49:29.811Z,11.50
2019-04-05T17:52:00.251Z,10.78
2019-04-05T17:54:30.672Z,12.13
2019-04-05T17:57:01.030Z,12.03
2019-04-05T17:59:31.488Z,11.57
2019-04-05T18:02:03.035Z,11.97
2019-04-05T18:04:36.410Z,12.53
2019-04-05T18:07:06.998Z,13.50
2019-04-05T18:09:38.667Z,13.58
2019-04-05T18:12:09.115Z,13.25
2019-04-05T18:14:39.519Z,12.40
2019-04-05T18:17:09.830Z,14.18
2019-04-05T18:19:40.231Z,13.60
2019-04-05T18:22:10.793Z,14.60
2019-04-05T18:24:41.454Z,13.28
2019-04-05T18:27:12.089Z,13.22
2019-04-05T18:29:42.433Z,13.50
2019-04-05T18:32:12.838Z,13.53
2019-04-05T18:34:43.200Z,14.23
2019-04-05T18:37:13.668Z,12.90
2019-04-05T18:39:43.957Z,13.13
2019-04-05T18:42:14.320Z,14.68
2019-04-05T18:44:44.733Z,15.35
2019-04-05T18:47:15.171Z,17.98
2019-04-05T18:49:45.521Z,25.55
2019-04-05T18:52:15.911Z,22.45
2019-04-05T18:54:46.209Z,22.42
2019-04-05T18:57:16.495Z,21.12
2019-04-05T18:59:46.940Z,19.57
2019-04-05T19:02:17.352Z,19.07
2019-04-05T19:04:47.678Z,18.20
2019-04-05T19:07:18.053Z,20.70
2019-04-05T19:09:49.449Z,18.02
2019-04-05T19:12:19.739Z,17.17
2019-04-05T19:14:50.108Z,16.20
2019-04-05T19:17:24.190Z,16.17
2019-04-05T19:19:52.499Z,15.53
2019-04-05T19:22:22.896Z,16.93
2019-04-05T19:24:53.282Z,15.85
2019-04-05T19:27:23.597Z,16.02
2019-04-05T19:29:54.000Z,14.63
2019-04-05T19:50:20.228Z,14.15
2019-04-05T19:52:50.479Z,15.20
2019-04-05T19:55:20.709Z,14.23
2019-04-05T19:57:51.010Z,13.08
2019-04-05T20:00:32.706Z,14.38
2019-04-05T20:03:03.029Z,13.90
2019-04-05T20:05:33.383Z,14.23
2019-04-05T20:08:03.813Z,14.30
2019-04-05T20:10:34.175Z,13.90
2019-04-05T20:13:04.462Z,14.45
2019-04-05T20:15:34.715Z,15.03
2019-04-05T20:18:05.130Z,13.93
2019-04-05T20:20:35.593Z,14.25
2019-04-05T20:23:06.971Z,12.98
2019-04-05T20:25:37.493Z,13.30
2019-04-05T20:28:07.810Z,13.35
2019-04-05T20:30:38.168Z,13.03
2019-04-05T20:33:08.620Z,13.70
2019-04-05T20:35:38.929Z,12.60
2019-04-05T20:38:09.266Z,13.93
2019-04-05T20:40:39.528Z,13.50
2019-04-05T20:43:09.951Z,13.15
2019-04-05T20:45:40.145Z,13.30
2019-04-05T20:48:10.511Z,14.07
2019-04-05T20:50:40.815Z,12.88
2019-04-05T20:53:11.161Z,13.20
2019-04-05T20:55:41.522Z,13.20
2019-04-05T20:58:11.926Z,12.88
2019-04-05T21:00:42.195Z,13.55
2019-04-05T21:03:12.624Z,12.75
2019-04-05T21:05:42.994Z,13.30
2019-04-05T21:08:13.367Z,12.53
2019-04-05T21:10:43.674Z,12.60
2019-04-05T21:13:14.073Z,12.93
2019-04-05T21:15:44.413Z,13.32
2019-04-05T21:18:14.782Z,13.28
2019-04-05T21:20:45.407Z,12.85
2019-04-05T21:23:15.779Z,13.40
2019-04-05T21:25:46.082Z,12.45
2019-04-05T21:28:16.514Z,12.25
2019-04-05T21:30:46.823Z,12.37
2019-04-05T21:33:17.214Z,12.80
2019-04-05T21:35:47.731Z,13.40
2019-04-05T21:38:18.080Z,13.50
2019-04-05T21:40:48.426Z,14.68
2019-04-05T21:43:18.763Z,12.55
2019-04-05T21:45:49.222Z,12.68
2019-04-05T21:48:19.617Z,13.32
2019-04-05T21:50:50.083Z,13.13
2019-04-05T21:53:20.391Z,13.53
2019-04-05T21:55:50.870Z,13.53
2019-04-05T21:58:21.175Z,12.98
2019-04-05T22:00:57.412Z,12.78
2019-04-05T22:03:28.195Z,12.45
2019-04-05T22:05:58.574Z,13.22
2019-04-05T22:08:48.014Z,12.43
2019-04-05T22:11:18.513Z,11.65
2019-04-05T22:14:08.091Z,11.53
2019-04-05T22:16:38.449Z,11.83
2019-04-05T22:19:08.799Z,12.25
2019-04-05T22:21:39.338Z,12.65
2019-04-05T22:24:09.844Z,11.93
2019-04-05T22:26:40.195Z,13.35
2019-04-05T22:29:10.630Z,11.70
2019-04-05T22:31:41.047Z,12.03
2019-04-05T22:34:11.471Z,12.03
2019-04-05T22:36:53.883Z,11.43
2019-04-05T22:39:36.457Z,12.60
2019-04-05T22:42:06.898Z,11.73
2019-04-05T22:44:38.957Z,12.20
2019-04-05T22:47:09.255Z,11.30
2019-04-05T22:49:39.740Z,12.65
2019-04-05T22:52:10.157Z,11.70
2019-04-05T22:54:40.430Z,11.20
2019-04-05T22:57:11.116Z,12.15
2019-04-05T22:59:41.600Z,11.18
2019-04-05T23:02:12.051Z,11.28
2019-04-05T23:04:42.470Z,11.12
2019-04-05T23:07:12.798Z,11.55
2019-04-05T23:09:43.140Z,11.43
2019-04-05T23:12:13.464Z,11.35
2019-04-05T23:14:43.877Z,12.25
2019-04-05T23:17:15.542Z,11.35
2019-04-05T23:19:47.758Z,10.88
2019-04-05T23:22:17.969Z,10.68
2019-04-05T23:24:48.377Z,11.10
2019-04-05T23:27:18.877Z,11.88
2019-04-05T23:29:49.340Z,10.63
2019-04-05T23:32:19.769Z,11.90
2019-04-05T23:34:50.102Z,11.38
2019-04-05T23:37:20.485Z,11.10
2019-04-05T23:39:50.917Z,11.00
2019-04-05T23:42:21.270Z,11.78
2019-04-05T23:44:51.578Z,11.18
2019-04-05T23:47:23.111Z,11.53
2019-04-05T23:49:54.571Z,11.88
2019-04-05T23:52:25.028Z,11.10
2019-04-05T23:54:55.348Z,11.28
2019-04-05T23:57:25.845Z,11.22
2019-04-05T23:59:56.277Z,11.78
